• Join FlightAware (Why Join?)
  • Login
  • US Flag 
09:09AM EDT


 

Airport Tracker/Info


-or-


 

Live Flight TrackerFlight Track Log ✈ UAL139 ✈ 29-Oct-2013 ✈ KDEN - RJAA / NRT

Flight Track Log - Related Links

Times and Time Zones

All times are in EDT time to prevent confusion due to time zone crossing. See the UAL139 flight status page for this flight to view local times or setup timezone preferences in your user account.

Time Position Orientation Groundspeed Altitude Reporting Facility
EDT Latitude Longitude Course Direction KTS MPH feet Rate Location/Type
05:25PM 39.8930 -104.6960 293° West 180 207 6,400  Level FlightAware
05:26PM 39.9110 -104.6960 360° North 206 237 6,800 1,080 Climbing FlightAware
05:26PM 39.9590 -104.7080 349° North 270 311 7,600 1,740 Climbing FlightAware
05:27PM 40.0160 -104.7240 348° North 280 322 9,400 1,980 Climbing FlightAware
05:28PM 40.0510 -104.7350 346° North 287 330 10,000 1,200 Climbing FlightAware
05:28PM 40.0910 -104.7530 341° North 312 359 10,600 1,440 Climbing FlightAware
05:29PM 40.1360 -104.7740 340° North 343 395 11,500 1,620 Climbing FlightAware
05:30PM 40.2420 -104.8230 341° North 398 458 13,200 1,920 Climbing FlightAware
05:31PM 40.3510 -104.8740 340° North 417 480 15,600 2,280 Climbing FlightAware
05:32PM 40.4490 -104.9200 340° North 432 497 17,600 2,160 Climbing FlightAware
05:33PM 40.5660 -104.9750 340° North 447 514 19,800 2,040 Climbing FlightAware
05:34PM 40.6820 -105.0290 341° North 457 526 21,700 1,860 Climbing FlightAware
05:34PM 40.7290 -105.0520 340° North 461 531 22,400 1,860 Climbing FlightAware
05:35PM 40.8010 -105.1090 329° Northwest 452 520 23,700 1,800 Climbing FlightAware
05:35PM 40.8560 -105.1700 320° Northwest 458 527 24,600 1,560 Climbing FlightAware
05:36PM 40.9090 -105.2260 321° Northwest 470 541 25,400 1,500 Climbing FlightAware
05:36PM 40.9910 -105.3080 323° Northwest 478 550 26,600 1,620 Climbing FlightAware
05:37PM 41.0990 -105.4180 323° Northwest 481 554 28,400 1,620 Climbing FlightAware
05:38PM 41.1490 -105.4700 322° Northwest 486 559 29,100 1,320 Climbing FlightAware
05:39PM 41.2200 -105.5440 322° Northwest 489 563 29,900 1,320 Climbing FlightAware
05:39PM 41.2760 -105.6020 322° Northwest 483 556 30,700 1,680 Climbing FlightAware
05:40PM 41.3300 -105.6590 322° Northwest 479 551 31,700 1,680 Climbing FlightAware
05:41PM 41.4330 -105.7660 322° Northwest 470 541 33,300 1,380 Climbing FlightAware
05:42PM 41.5260 -105.8640 322° Northwest 475 547 34,400 1,200 Climbing FlightAware
05:42PM 41.5900 -105.9320 322° Northwest 474 545 35,200 1,140 Climbing FlightAware
05:43PM 41.6850 -106.0300 322° Northwest 477 549 36,200 900 Climbing FlightAware
05:44PM 41.7470 -106.0960 322° Northwest 481 554 36,600 720 Climbing FlightAware
05:44PM 41.8090 -106.1610 322° Northwest 478 550 37,100 660 Climbing FlightAware
05:45PM 41.9070 -106.2660 321° Northwest 484 557 37,700 480 Climbing FlightAware
05:46PM 41.9600 -106.3230 321° Northwest 491 565 37,800 180 Climbing FlightAware
05:47PM 42.0400 -106.4090 321° Northwest 491 565 38,000 60 Climbing FlightAware
05:48PM 42.1300 -106.5070 321° Northwest 491 565 38,000  Level FlightAware
05:49PM 42.2240 -106.6110 321° Northwest 491 565 38,000  Level FlightAware
05:49PM 42.2780 -106.6700 321° Northwest 491 565 38,000  Level FlightAware
05:50PM 42.3700 -106.7700 321° Northwest 491 565 38,000  Level FlightAware
05:50PM 42.3880 -106.7900 321° Northwest 491 565 38,000  Level FlightAware
05:52PM 42.4930 -106.9050 321° Northwest 491 565 38,000  Level FlightAware
05:52PM 42.5490 -106.9660 321° Northwest 491 565 38,000  Level FlightAware
05:53PM 42.6220 -107.0470 321° Northwest 491 565 38,000  Level FlightAware
05:54PM 42.6930 -107.1250 321° Northwest 491 565 38,000  Level FlightAware
05:55PM 42.7800 -107.2210 321° Northwest 491 565 38,000  Level FlightAware
05:56PM 42.8700 -107.3200 321° Northwest 491 565 38,000  Level FlightAware
05:56PM 42.8880 -107.3400 321° Northwest 491 565 38,000  Level FlightAware
05:57PM 43.1119 -107.5853 321° Northwest 496 571 38,000  Level Denver Center
05:57PM 43.1975 -107.6825 320° Northwest 499 574 38,000  Level Salt Lake Center
06:03PM 43.7740 -108.3380 320° Northwest 497 572 38,000  Level FlightAware
06:04PM 43.8650 -108.4430 320° Northwest 498 573 38,000  Level FlightAware
06:04PM 43.9470 -108.5380 320° Northwest 496 571 38,000  Level FlightAware
06:05PM 44.0110 -108.6130 320° Northwest 497 572 38,000  Level FlightAware
06:06PM 44.1240 -108.7460 320° Northwest 506 582 38,000  Level FlightAware
06:07PM 44.2340 -108.8750 320° Northwest 509 586 38,000  Level FlightAware
06:07PM 44.2860 -108.9370 320° Northwest 510 587 38,000  Level FlightAware
06:08PM 44.3500 -109.0120 320° Northwest 510 587 38,000  Level FlightAware
06:09PM 44.4010 -109.0720 320° Northwest 509 586 38,000  Level FlightAware
06:10PM 44.5090 -109.2010 320° Northwest 505 581 38,000  Level FlightAware
06:10PM 44.5970 -109.3080 319° Northwest 502 578 38,000  Level FlightAware
06:11PM 44.6770 -109.4030 320° Northwest 498 573 38,000  Level FlightAware
06:12PM 44.7580 -109.5020 319° Northwest 494 568 38,000  Level FlightAware
06:13PM 44.8470 -109.6090 320° Northwest 494 568 38,000  Level FlightAware
06:13PM 44.9010 -109.6750 319° Northwest 493 567 38,000  Level FlightAware
06:14PM 44.9620 -109.7490 319° Northwest 496 571 38,000  Level FlightAware
06:14PM 45.0210 -109.8210 319° Northwest 497 572 38,000  Level FlightAware
06:15PM 45.0820 -109.8960 319° Northwest 498 573 38,000  Level FlightAware
06:16PM 45.1610 -109.9930 319° Northwest 501 577 38,000  Level FlightAware
06:17PM 45.2570 -110.1120 319° Northwest 503 579 38,000  Level FlightAware
06:18PM 45.3500 -110.2270 319° Northwest 504 580 38,000  Level FlightAware
06:19PM 45.4580 -110.3630 319° Northwest 503 579 38,000  Level FlightAware
06:20PM 45.5560 -110.4840 319° Northwest 501 577 38,000  Level FlightAware
06:20PM 45.6110 -110.5540 318° Northwest 502 578 38,000  Level FlightAware
06:21PM 45.7140 -110.6840 319° Northwest 503 579 38,000  Level FlightAware
06:22PM 45.8010 -110.7950 318° Northwest 502 578 38,000  Level FlightAware
06:23PM 45.8820 -110.8980 319° Northwest 502 578 38,000  Level FlightAware
06:24PM 45.9800 -111.0230 318° Northwest 504 580 38,000  Level FlightAware
06:25PM 46.0740 -111.1330 321° Northwest 496 571 38,000  Level FlightAware
06:25PM 46.1400 -111.1960 327° Northwest 494 568 38,000  Level FlightAware
06:26PM 46.2170 -111.2700 326° Northwest 493 567 38,000  Level FlightAware
06:26PM 46.2910 -111.3410 326° Northwest 490 564 38,000  Level FlightAware
06:27PM 46.3970 -111.4430 326° Northwest 486 559 38,000  Level FlightAware
06:28PM 46.4790 -111.5200 327° Northwest 487 560 38,000  Level FlightAware
06:29PM 46.5640 -111.6030 326° Northwest 492 566 38,000  Level FlightAware
06:30PM 46.6590 -111.6940 327° Northwest 492 566 38,000  Level FlightAware
06:31PM 46.7620 -111.7960 326° Northwest 486 559 38,000  Level FlightAware
06:31PM 46.8600 -111.8970 325° Northwest 482 555 38,000  Level FlightAware
06:32PM 46.9280 -111.9820 320° Northwest 485 558 38,000  Level FlightAware
06:33PM 46.9800 -112.0480 319° Northwest 485 558 38,000  Level FlightAware
06:33PM 47.0140 -112.0920 319° Northwest 485 558 38,000  Level FlightAware
06:34PM 47.0840 -112.1800 319° Northwest 485 558 38,000  Level FlightAware
06:35PM 47.1700 -112.2900 319° Northwest 485 558 38,000  Level FlightAware
06:36PM 47.2390 -112.3790 319° Northwest 485 558 38,000  Level FlightAware
06:37PM 47.3310 -112.4970 319° Northwest 485 558 38,000  Level FlightAware
06:37PM 47.3830 -112.5630 319° Northwest 485 558 38,000  Level FlightAware
06:38PM 47.4190 -112.6090 319° Northwest 485 558 38,000  Level FlightAware
06:39PM 47.4710 -112.6760 319° Northwest 485 558 38,000  Level FlightAware
06:39PM 47.5240 -112.7450 319° Northwest 485 558 38,000  Level FlightAware
06:40PM 47.5940 -112.8350 319° Northwest 485 558 38,000  Level FlightAware
06:41PM 47.6810 -112.9470 319° Northwest 485 558 38,000  Level FlightAware
06:42PM 47.7300 -113.0100 319° Northwest 485 558 38,000  Level FlightAware
06:44PM 48.0120 -113.6050 305° West 488 562 38,000  Level FlightAware
06:45PM 48.1250 -113.7740 315° West 487 560 38,000  Level FlightAware
06:46PM 48.2270 -113.9340 314° West 493 567 38,000  Level FlightAware
06:46PM 48.2910 -114.0330 314° West 493 567 38,000  Level FlightAware
06:47PM 48.3700 -114.1570 314° West 494 568 38,000  Level FlightAware
06:48PM 48.4480 -114.2800 314° West 495 570 38,000  Level FlightAware
06:49PM 48.5040 -114.3680 314° West 492 566 38,000  Level FlightAware
06:49PM 48.5500 -114.4410 314° West 489 563 38,000  Level FlightAware
06:50PM 48.6360 -114.5780 314° West 487 560 38,000  Level FlightAware
06:51PM 48.7340 -114.7350 313° West 488 562 38,000  Level FlightAware
06:52PM 48.7970 -114.8360 313° West 478 550 38,000  Level FlightAware
06:53PM 48.8830 -114.9770 313° West 475 547 38,000  Level FlightAware
06:54PM 48.9670 -115.1130 313° West 474 545 38,000  Level FlightAware
06:55PM 49.0430 -115.2360 313° West 479 551 38,000  Level FlightAware
06:55PM 49.1120 -115.3510 313° West 478 550 38,000  Level FlightAware
06:56PM 49.1630 -115.4340 313° West 475 547 38,000  Level FlightAware
06:57PM 49.2280 -115.5420 313° West 473 544 38,000  Level FlightAware
06:57PM 49.2880 -115.6420 313° West 474 545 38,000  Level FlightAware
06:58PM 49.3550 -115.7530 313° West 475 547 38,000  Level FlightAware
06:59PM 49.4080 -115.8410 313° West 477 549 38,000  Level FlightAware
06:59PM 49.4830 -115.9680 312° West 477 549 38,000  Level FlightAware
07:00PM 49.5510 -116.0820 313° West 476 548 38,000  Level FlightAware
07:01PM 49.5880 -116.1460 312° West 471 542 38,000  Level FlightAware
07:01PM 49.6560 -116.2690 311° West 475 547 38,000  Level FlightAware
07:02PM 49.7070 -116.3600 311° West 473 544 38,000  Level FlightAware
07:03PM 49.7580 -116.4520 311° West 472 543 38,000  Level FlightAware
07:03PM 49.8040 -116.5330 311° West 473 544 38,000  Level FlightAware
07:04PM 49.8710 -116.6540 311° West 474 545 38,000  Level FlightAware
07:05PM 49.9270 -116.7550 311° West 474 545 38,000  Level FlightAware
07:05PM 49.9770 -116.8470 310° West 475 547 38,000  Level FlightAware
07:06PM 50.0430 -116.9680 310° West 477 549 38,000  Level FlightAware
07:07PM 50.1160 -117.1000 311° West 474 545 38,000  Level FlightAware
07:08PM 50.1990 -117.2540 310° West 472 543 38,000  Level FlightAware
07:09PM 50.2770 -117.3980 310° West 472 543 38,000  Level FlightAware
07:10PM 50.3530 -117.5400 310° West 473 544 38,000  Level FlightAware
07:10PM 50.4100 -117.6470 310° West 473 544 38,000  Level FlightAware
07:11PM 50.4540 -117.7290 310° West 473 544 38,000  Level FlightAware
07:12PM 50.5270 -117.8680 310° West 463 533 38,000  Level FlightAware
07:12PM 50.5860 -117.9800 310° West 468 539 38,000  Level FlightAware
07:13PM 50.6290 -118.0610 310° West 469 540 38,000  Level FlightAware
07:13PM 50.6730 -118.1460 309° West 469 540 38,000  Level FlightAware
07:14PM 50.7250 -118.2450 310° West 471 542 38,000  Level FlightAware
07:15PM 50.7850 -118.3610 309° West 471 542 38,000  Level FlightAware
07:16PM 50.8440 -118.4750 309° West 473 544 38,000  Level FlightAware
07:17PM 50.9230 -118.6300 309° West 474 545 38,000  Level FlightAware
07:17PM 50.9800 -118.7400 309° West 471 542 38,000  Level FlightAware
07:18PM 51.0140 -118.8070 309° West 471 542 38,000  Level FlightAware
07:18PM 51.0600 -118.8980 309° West 470 541 38,000  Level FlightAware
07:19PM 51.1150 -119.0060 309° West 466 536 38,000  Level FlightAware
07:20PM 51.1960 -119.1670 309° West 466 536 38,000  Level FlightAware
07:21PM 51.2660 -119.3070 309° West 466 536 38,000  Level FlightAware
07:21PM 51.3170 -119.4090 309° West 464 534 38,000  Level FlightAware
07:22PM 51.3940 -119.5630 309° West 461 531 38,000  Level FlightAware
07:23PM 51.4630 -119.7030 308° West 462 532 38,000  Level FlightAware
07:24PM 51.5340 -119.8490 308° West 462 532 38,000  Level FlightAware
07:25PM 51.6170 -120.0200 308° West 461 531 38,000  Level FlightAware
07:26PM 51.6630 -120.1130 309° West 461 531 38,000  Level FlightAware
07:27PM 51.7310 -120.2540 308° West 461 531 38,000  Level FlightAware
07:27PM 51.7720 -120.3400 308° West 462 532 38,000  Level FlightAware
07:28PM 51.8450 -120.4920 308° West 462 532 38,000  Level FlightAware
07:29PM 51.8860 -120.5790 307° West 463 533 38,000  Level FlightAware
07:29PM 51.9520 -120.7190 307° West 463 533 38,000  Level FlightAware
07:30PM 52.0030 -120.8260 308° West 465 535 38,000  Level FlightAware
07:31PM 52.0820 -120.9950 307° West 461 531 38,000  Level FlightAware
07:32PM 52.1210 -121.0790 307° West 461 531 38,000  Level FlightAware
07:33PM 52.2100 -121.2710 307° West 460 529 38,000  Level FlightAware
07:33PM 52.2550 -121.3670 307° West 459 528 38,000  Level FlightAware
07:34PM 52.3160 -121.5010 307° West 459 528 38,000  Level FlightAware
07:35PM 52.3780 -121.6350 307° West 457 526 38,000  Level FlightAware
07:36PM 52.4380 -121.7670 307° West 459 528 38,000  Level FlightAware
07:36PM 52.4830 -121.8670 306° West 461 531 38,000  Level FlightAware
07:37PM 52.5600 -122.0370 307° West 456 525 38,000  Level FlightAware
07:38PM 52.6280 -122.1900 306° West 453 521 38,000  Level FlightAware
07:39PM 52.6630 -122.2690 306° West 453 521 38,000  Level FlightAware
07:40PM 52.7290 -122.4180 306° West 454 522 38,000  Level FlightAware
07:41PM 52.8080 -122.5980 306° West 451 519 38,000  Level FlightAware
07:42PM 52.8690 -122.7350 306° West 451 519 38,000  Level FlightAware
07:43PM 52.9410 -122.9010 306° West 457 526 38,000  Level FlightAware
07:43PM 53.0040 -123.0470 306° West 455 524 38,000  Level FlightAware
07:44PM 53.0670 -123.1950 305° West 450 518 38,000  Level FlightAware
07:45PM 53.1370 -123.3570 306° West 448 516 38,000  Level FlightAware
07:46PM 53.1690 -123.4320 305° West 449 517 38,000  Level FlightAware
07:46PM 53.2090 -123.5270 305° West 450 518 38,000  Level FlightAware
07:47PM 53.2700 -123.6710 305° West 450 518 38,000  Level FlightAware
07:48PM 53.3230 -123.7970 305° West 448 516 38,000  Level FlightAware
07:49PM 53.3920 -123.9620 305° West 448 516 38,000  Level FlightAware
07:50PM 53.4560 -124.1180 305° West 446 513 38,000  Level FlightAware
07:50PM 53.5080 -124.2430 305° West 443 510 38,000  Level FlightAware
07:51PM 53.5600 -124.3690 305° West 447 514 38,000  Level FlightAware
07:52PM 53.6150 -124.5050 304° West 447 514 38,000  Level FlightAware
07:53PM 53.6800 -124.6650 304° West 447 514 38,000  Level FlightAware
07:54PM 53.7570 -124.8570 304° West 447 514 38,000  Level FlightAware
07:54PM 53.7850 -124.9260 305° West 447 514 38,000  Level FlightAware
07:55PM 53.8540 -125.0990 304° West 447 514 38,000  Level FlightAware
07:56PM 53.9170 -125.2570 304° West 449 517 38,000  Level FlightAware
07:57PM 53.9810 -125.4200 304° West 448 516 38,000  Level FlightAware
07:58PM 54.0510 -125.5990 304° West 448 516 38,000  Level FlightAware
07:59PM 54.0980 -125.7200 304° West 447 514 38,000  Level FlightAware
08:00PM 54.1510 -125.8580 303° West 449 517 38,000  Level FlightAware
08:00PM 54.1830 -125.9410 303° West 447 514 38,000  Level FlightAware
08:01PM 54.2440 -126.1000 303° West 444 511 38,000  Level FlightAware
08:02PM 54.3090 -126.2710 303° West 443 510 38,000  Level FlightAware
08:03PM 54.3580 -126.4000 303° West 441 507 38,000  Level FlightAware
08:04PM 54.4170 -126.5570 303° West 439 505 38,000  Level FlightAware
08:04PM 54.4490 -126.6420 303° West 439 505 38,000  Level FlightAware
08:05PM 54.5070 -126.8040 302° West 438 504 38,000  Level FlightAware
08:06PM 54.5740 -126.9930 302° West 435 501 38,000  Level FlightAware
08:07PM 54.6220 -127.1310 301° West 434 499 38,000  Level FlightAware
08:08PM 54.6590 -127.2360 301° West 436 502 38,000  Level FlightAware
08:08PM 54.6940 -127.3380 301° West 436 502 38,000  Level FlightAware
08:09PM 54.7480 -127.4940 301° West 431 496 38,000  Level FlightAware
08:10PM 54.7960 -127.6320 301° West 433 498 38,000  Level FlightAware
08:11PM 54.8530 -127.8030 300° West 433 498 38,000  Level FlightAware
08:11PM 54.8940 -127.9210 301° West 433 498 38,000  Level FlightAware
08:12PM 54.9450 -128.0750 300° West 433 498 38,000  Level FlightAware
08:13PM 54.9650 -128.1360 300° West 433 498 38,000  Level FlightAware
08:14PM 55.0400 -128.3560 301° West 435 501 38,000  Level FlightAware
08:14PM 55.0610 -128.4180 301° West 435 501 38,000  Level FlightAware
08:15PM 55.0810 -128.4800 299° West 435 501 38,000  Level FlightAware
08:15PM 55.1230 -128.6070 300° West 435 501 38,000  Level FlightAware
08:16PM 55.1750 -128.7650 300° West 435 501 38,000  Level FlightAware
08:17PM 55.1960 -128.8270 301° West 435 501 38,000  Level FlightAware
08:18PM 55.2480 -128.9860 300° West 435 501 38,000  Level FlightAware
08:19PM 55.2890 -129.1100 300° West 435 501 38,000  Level FlightAware
08:19PM 55.3200 -129.2040 300° West 435 501 38,000  Level FlightAware
08:20PM 55.3720 -129.3630 300° West 435 501 38,000  Level FlightAware
08:21PM 55.4130 -129.4880 300° West 435 501 38,000  Level FlightAware
08:22PM 55.4540 -129.6140 300° West 435 501 38,000  Level FlightAware
08:22PM 55.4750 -129.6790 300° West 435 501 38,000  Level FlightAware
08:23PM 55.5270 -129.8360 300° West 435 501 38,000  Level FlightAware
08:25PM 55.6667 -130.3667 300° West 430 495 38,000  Level Vancouver Center
08:26PM 55.7167 -130.5500 296° West 420 483 38,000  Level Vancouver Center
08:27PM 55.7667 -130.7667 292° West 420 483 38,000  Level Vancouver Center
08:28PM 55.8333 -130.9333 306° West 420 483 38,000  Level Vancouver Center
08:29PM 55.9000 -131.1167 303° West 430 495 38,000  Level Anchorage Center
08:30PM 55.9500 -131.3000 296° West 430 495 38,000  Level Vancouver Center
08:31PM 56.0000 -131.5000 294° West 420 483 38,000  Level Vancouver Center
08:32PM 56.0500 -131.6833 296° West 430 495 38,000  Level Vancouver Center
08:33PM 56.1167 -131.8833 301° West 420 483 38,000  Level Vancouver Center
08:34PM 56.1667 -132.0667 296° West 430 495 38,000  Level Vancouver Center
08:35PM 56.2167 -132.2333 298° West 430 495 38,000  Level Vancouver Center
08:36PM 56.2500 -132.4500 286° West 420 483 38,000  Level Vancouver Center
08:37PM 56.3167 -132.6500 301° West 440 506 38,000  Level Vancouver Center
08:38PM 56.3500 -132.8667 286° West 420 483 38,000  Level Vancouver Center
08:39PM 56.3833 -133.0167 292° West 420 483 38,000  Level Vancouver Center
08:40PM 56.4333 -133.2500 291° West 420 483 38,000  Level Vancouver Center
08:41PM 56.4667 -133.4000 292° West 420 483 38,000  Level Vancouver Center
08:42PM 56.5167 -133.6333 291° West 430 495 38,000  Level Vancouver Center
08:43PM 56.5667 -133.8000 299° West 420 483 38,000  Level Anchorage Center
08:44PM 56.6000 -134.0000 287° West 410 472 38,000  Level Anchorage Center
08:45PM 56.6500 -134.2000 295° West 420 483 38,000  Level Anchorage Center
08:46PM 56.6833 -134.3833 288° West 420 483 38,000  Level Anchorage Center
08:47PM 56.7333 -134.5833 295° West 420 483 38,000  Level Anchorage Center
08:48PM 56.7667 -134.7833 287° West 420 483 38,000  Level Anchorage Center
08:49PM 56.8000 -134.9833 287° West 420 483 38,000  Level Anchorage Center
08:50PM 56.8500 -135.1833 295° West 410 472 38,000  Level Anchorage Center
08:51PM 56.8833 -135.3500 290° West 420 483 38,000  Level Anchorage Center
08:52PM 56.9167 -135.5500 287° West 410 472 38,000  Level Anchorage Center
08:53PM 56.9500 -135.7667 286° West 410 472 38,000  Level Anchorage Center
08:54PM 57.0000 -135.9667 295° West 420 483 38,000  Level Anchorage Center
08:55PM 57.0333 -136.1667 287° West 410 472 38,000  Level Anchorage Center
08:56PM 57.0667 -136.3667 287° West 410 472 38,000  Level Anchorage Center
08:57PM 57.1000 -136.5667 287° West 410 472 38,000  Level Anchorage Center
08:58PM 57.1500 -136.7667 295° West 420 483 38,000  Level Anchorage Center
08:59PM 57.1833 -136.9667 287° West 420 483 38,000  Level Anchorage Center
09:00PM 57.2167 -137.1833 286° West 410 472 38,000  Level Anchorage Center
09:01PM 57.2500 -137.3833 287° West 400 460 38,000  Level Anchorage Center
09:02PM 57.2833 -137.5833 287° West 410 472 38,000  Level Anchorage Center
09:03PM 57.3167 -137.7833 287° West 410 472 38,000  Level Anchorage Center
09:04PM 57.3500 -137.9833 287° West 410 472 38,000  Level Anchorage Center
09:05PM 57.3833 -138.1833 287° West 410 472 38,000  Level Anchorage Center
09:06PM 57.4167 -138.3833 287° West 410 472 38,000  Level Anchorage Center
09:07PM 57.4500 -138.5833 287° West 410 472 38,000  Level Anchorage Center
09:08PM 57.5000 -138.8000 293° West 420 483 38,000  Level Anchorage Center
09:09PM 57.5333 -139.0000 287° West 410 472 38,000  Level Anchorage Center
09:10PM 57.5500 -139.2167 278° West 420 483 38,000  Level Anchorage Center
09:11PM 57.5833 -139.4167 287° West 410 472 38,000  Level Anchorage Center
09:12PM 57.6167 -139.6167 287° West 420 483 38,000  Level Anchorage Center
09:13PM 57.6500 -139.8333 286° West 420 483 38,000  Level Anchorage Center
09:14PM 57.6833 -140.0333 287° West 420 483 38,000  Level Anchorage Center
09:15PM 57.7167 -140.2500 286° West 420 483 38,000  Level Anchorage Center
09:16PM 57.7500 -140.4667 286° West 420 483 38,000  Level Anchorage Center
09:17PM 57.7667 -140.6833 278° West 420 483 38,000  Level Anchorage Center
09:18PM 57.8000 -140.9000 286° West 420 483 38,000  Level Anchorage Center
09:19PM 57.8333 -141.1000 287° West 420 483 38,000  Level Anchorage Center
09:20PM 57.8667 -141.3167 286° West 420 483 38,000  Level Anchorage Center
09:21PM 57.9000 -141.5333 286° West 420 483 38,000  Level Anchorage Center
09:22PM 57.9167 -141.7500 278° West 430 495 38,000  Level Anchorage Center
09:23PM 57.9500 -141.9833 285° West 430 495 38,000  Level Anchorage Center
09:24PM 57.9833 -142.2000 286° West 430 495 38,000  Level Anchorage Center
09:25PM 58.0167 -142.4167 286° West 430 495 38,000  Level Anchorage Center
09:26PM 58.0333 -142.6333 278° West 430 495 38,000  Level Anchorage Center
09:27PM 58.0667 -142.8667 285° West 430 495 38,000  Level Anchorage Center
09:28PM 58.1000 -143.0833 286° West 430 495 38,000  Level Anchorage Center
09:29PM 58.1167 -143.3000 278° West 430 495 38,000  Level Anchorage Center
09:30PM 58.1500 -143.5167 286° West 430 495 38,000  Level Anchorage Center
09:31PM 58.1667 -143.7500 278° West 430 495 38,000  Level Anchorage Center
09:32PM 58.2000 -143.9667 286° West 440 506 38,000  Level Anchorage Center
09:33PM 58.2167 -144.2000 278° West 440 506 38,000  Level Anchorage Center
09:34PM 58.2500 -144.4333 285° West 440 506 38,000  Level Anchorage Center
09:35PM 58.2667 -144.6500 278° West 440 506 38,000  Level Anchorage Center
09:36PM 58.3000 -144.8833 285° West 440 506 38,000  Level Anchorage Center
09:37PM 58.3167 -145.1167 278° West 440 506 38,000  Level Anchorage Center
09:38PM 58.3500 -145.3500 285° West 440 506 38,000  Level Anchorage Center
09:39PM 58.3667 -145.5833 278° West 440 506 38,000  Level Anchorage Center
09:40PM 58.4000 -145.8167 285° West 450 518 38,000  Level Anchorage Center
09:41PM 58.4167 -146.0500 278° West 440 506 38,000  Level Anchorage Center
09:42PM 58.4333 -146.2833 278° West 440 506 38,000  Level Anchorage Center
09:43PM 58.4667 -146.5167 285° West 450 518 38,000  Level Anchorage Center
09:44PM 58.4833 -146.7667 277° West 450 518 38,000  Level Anchorage Center
09:45PM 58.5000 -147.0000 278° West 450 518 38,000  Level Anchorage Center
09:46PM 58.5167 -147.2333 278° West 450 518 38,000  Level Anchorage Center
09:47PM 58.5500 -147.4833 284° West 450 518 38,000  Level Anchorage Center
09:48PM 58.5667 -147.7167 278° West 450 518 38,100 300 Climbing Anchorage Center
09:53PM 58.6690 -148.9610 278° West 451 519 40,000 300 Climbing FlightAware
09:54PM 58.6850 -149.1860 278° West 452 520 40,000  Level FlightAware
09:55PM 58.7000 -149.3980 278° West 453 521 40,000  Level FlightAware
09:55PM 58.7080 -149.5020 278° West 453 521 40,000  Level FlightAware
09:56PM 58.7170 -149.6450 277° West 454 522 40,000  Level FlightAware
09:57PM 58.7290 -149.8260 277° West 454 522 40,000  Level FlightAware
09:58PM 58.7430 -150.0410 277° West 456 525 40,000  Level FlightAware
09:58PM 58.7520 -150.1710 278° West 456 525 40,000  Level FlightAware
09:59PM 58.7620 -150.3390 277° West 456 525 40,000  Level FlightAware
10:00PM 58.7720 -150.5080 277° West 459 528 40,000  Level FlightAware
10:00PM 58.7810 -150.6740 276° West 459 528 40,000  Level FlightAware
10:01PM 58.7900 -150.8330 276° West 459 528 40,000  Level FlightAware
10:02PM 58.7990 -151.0000 276° West 459 528 40,000  Level FlightAware
10:02PM 58.8050 -151.1210 276° West 459 528 40,000  Level FlightAware
10:03PM 58.8270 -151.4770 277° West 464 534 40,000  Level FlightAware
10:04PM 58.8380 -151.6750 276° West 465 535 40,000  Level FlightAware
10:05PM 58.8480 -151.8780 276° West 466 536 40,000  Level FlightAware
10:06PM 58.8550 -152.0480 275° West 466 536 40,000  Level FlightAware
10:06PM 58.8590 -152.1320 275° West 466 536 40,000  Level FlightAware
10:07PM 58.8650 -152.2630 275° West 466 536 40,000  Level FlightAware
10:08PM 58.8730 -152.4360 275° West 466 536 40,000  Level FlightAware
10:09PM 58.8820 -152.6410 275° West 466 536 40,000  Level FlightAware
10:09PM 58.8860 -152.7260 275° West 466 536 40,000  Level FlightAware
10:10PM 58.8950 -152.9380 275° West 466 536 40,000  Level FlightAware
10:10PM 58.8990 -153.0220 275° West 466 536 40,000  Level FlightAware
10:11PM 58.9050 -153.1430 276° West 466 536 40,000  Level FlightAware
10:12PM 58.9120 -153.2980 275° West 466 536 40,000  Level FlightAware
10:12PM 58.9170 -153.4250 274° West 466 536 40,000  Level FlightAware
10:13PM 58.9270 -153.6380 275° West 466 536 40,000  Level FlightAware
10:14PM 58.9350 -153.8070 275° West 466 536 40,000  Level FlightAware
10:15PM 58.9380 -153.8920 274° West 466 536 40,000  Level FlightAware
10:16PM 58.9500 -154.5333 274° West 460 529 40,000  Level Anchorage Center
10:17PM 58.9500 -154.7833 270° West 470 541 40,000  Level Anchorage Center
10:19PM 58.9667 -155.2833 274° West 470 541 40,000  Level Anchorage Center
10:20PM 58.9667 -155.5333 270° West 470 541 40,000  Level Anchorage Center
10:21PM 58.9833 -155.8500 276° West 470 541 40,000  Level Anchorage Center
10:22PM 58.9833 -156.1000 270° West 460 529 40,000  Level Anchorage Center
10:23PM 58.9833 -156.3500 270° West 470 541 40,000  Level Anchorage Center
10:24PM 58.9833 -156.6000 270° West 470 541 40,000  Level Anchorage Center
10:25PM 58.9833 -156.8500 270° West 470 541 40,000  Level Anchorage Center
10:26PM 59.0000 -157.1167 277° West 470 541 40,000  Level Anchorage Center
10:27PM 59.0000 -157.3667 270° West 470 541 40,000  Level Anchorage Center
10:28PM 59.0000 -157.6167 270° West 470 541 40,000  Level Anchorage Center
10:29PM 59.0000 -157.8833 270° West 470 541 40,000  Level Anchorage Center
10:30PM 59.0000 -158.1333 270° West 470 541 40,000  Level Anchorage Center
10:31PM 59.0000 -158.3333 270° West 480 552 40,000  Level Anchorage Center
10:32PM 59.0000 -158.6500 270° West 470 541 40,000  Level Anchorage Center
10:33PM 59.0000 -158.9000 270° West 470 541 40,000  Level Anchorage Center
10:34PM 59.0000 -159.1667 270° West 480 552 40,000  Level Anchorage Center
10:35PM 59.0000 -159.4167 270° West 470 541 40,000  Level Anchorage Center
10:36PM 58.9833 -159.6500 262° West 480 552 40,000  Level Anchorage Center
10:37PM 58.9833 -159.9167 270° West 480 552 40,000  Level Anchorage Center
10:38PM 58.9833 -160.1667 270° West 480 552 40,000  Level Anchorage Center
10:39PM 58.9833 -160.4333 270° West 470 541 40,000  Level Anchorage Center
10:40PM 58.9833 -160.7000 270° West 480 552 40,000  Level Anchorage Center
10:41PM 58.9667 -160.9500 263° West 470 541 40,000  Level Anchorage Center
10:42PM 58.9667 -161.2667 270° West 480 552 40,000  Level Anchorage Center
10:43PM 58.9500 -161.5167 263° West 470 541 40,000  Level Anchorage Center
10:44PM 58.9500 -161.7833 270° West 480 552 40,000  Level Anchorage Center
10:45PM 58.9333 -162.0333 263° West 470 541 40,000  Level Anchorage Center
10:46PM 58.9333 -162.3000 270° West 480 552 40,000  Level Anchorage Center
10:47PM 58.9333 -162.5500 270° West 480 552 40,000  Level Anchorage Center
10:48PM 58.9167 -162.8167 263° West 480 552 40,000  Level Anchorage Center
10:49PM 58.9000 -163.0667 263° West 480 552 40,000  Level Anchorage Center
10:50PM 58.9000 -163.3333 270° West 480 552 40,000  Level Anchorage Center
10:51PM 58.8833 -163.5833 263° West 480 552 40,000  Level Anchorage Center
10:52PM 58.8833 -163.8500 270° West 490 564 40,000  Level Anchorage Center
10:53PM 58.8667 -164.1000 263° West 480 552 40,000  Level Anchorage Center
10:54PM 58.8500 -164.3667 263° West 480 552 40,000  Level Anchorage Center
10:55PM 58.8500 -164.6167 270° West 480 552 40,000  Level Anchorage Center
10:56PM 58.8333 -164.8833 263° West 480 552 40,000  Level Anchorage Center
10:57PM 58.8167 -165.1500 263° West 480 552 40,000  Level Anchorage Center
10:58PM 58.8000 -165.4000 263° West 490 564 40,000  Level Anchorage Center
10:59PM 58.7833 -165.6667 263° West 480 552 40,000  Level Anchorage Center
11:00PM 58.7667 -165.9167 263° West 480 552 40,000  Level Anchorage Center
11:01PM 58.7500 -166.2333 264° West 480 552 40,000  Level Anchorage Center
11:02PM 58.7333 -166.4833 263° West 470 541 40,000  Level Anchorage Center
11:03PM 58.7333 -166.7500 270° West 480 552 40,000  Level Anchorage Center
11:04PM 58.7000 -166.9833 255° West 460 529 40,000  Level Anchorage Center
11:05PM 58.6833 -167.2500 263° West 470 541 40,000  Level Anchorage Center
11:06PM 58.6667 -167.5000 263° West 480 552 40,000  Level Anchorage Center
11:07PM 58.6333 -167.7667 257° West 480 552 40,000  Level Anchorage Center
11:08PM 58.6167 -168.0167 263° West 490 564 40,000  Level Anchorage Center
11:09PM 58.6000 -168.2667 263° West 470 541 40,000  Level Anchorage Center
11:10PM 58.5667 -168.5333 257° West 480 552 40,000  Level Anchorage Center
11:11PM 58.5500 -168.7833 263° West 480 552 40,000  Level Anchorage Center
11:12PM 58.5167 -169.0333 256° West 480 552 40,000  Level Anchorage Center
11:13PM 58.5000 -169.3000 263° West 480 552 40,000  Level Anchorage Center
11:14PM 58.4833 -169.5000 261° West 490 564 40,000  Level Anchorage Center
11:15PM 58.4500 -169.8167 259° West 490 564 40,000  Level Anchorage Center
11:16PM 58.4333 -170.0167 261° West 490 564 40,000  Level Anchorage Center
11:17PM 58.4000 -170.3167 258° West 480 552 40,000  Level Anchorage Center
11:18PM 58.3667 -170.5167 252° West 480 552 40,000  Level Anchorage Center
11:19PM 58.3500 -170.7833 263° West 480 552 40,000  Level Anchorage Center
11:20PM 58.3167 -171.0333 256° West 480 552 40,000  Level Anchorage Center
11:21PM 58.2833 -171.3167 258° West 480 552 40,000  Level Anchorage Center
11:22PM 58.2667 -171.5333 262° West 480 552 40,000  Level Anchorage Center
11:23PM 58.2333 -171.7667 255° West 480 552 40,000  Level Anchorage Center
11:24PM 58.2000 -172.0167 256° West 470 541 40,000  Level Anchorage Center
11:25PM 58.1667 -172.2667 256° West 480 552 40,000  Level Anchorage Center
11:26PM 58.1500 -172.5167 263° West 490 564 40,000  Level Anchorage Center
11:27PM 58.1167 -172.7667 256° West 490 564 40,000  Level Anchorage Center
11:28PM 58.0833 -173.0167 256° West 470 541 40,000  Level Anchorage Center
11:29PM 58.0500 -173.2667 256° West 480 552 40,000  Level Anchorage Center
11:30PM 58.0167 -173.5167 256° West 480 552 40,000  Level Anchorage Center
11:31PM 57.9833 -173.7667 256° West 490 564 40,000  Level Anchorage Center
11:32PM 57.9500 -174.0167 256° West 480 552 40,000  Level Anchorage Center
11:33PM 57.9167 -174.2500 255° West 470 541 40,000  Level Anchorage Center
11:34PM 57.8833 -174.5000 256° West 490 564 40,000  Level Anchorage Center
11:35PM 57.8500 -174.7500 256° West 480 552 40,000  Level Anchorage Center
11:36PM 57.8167 -174.9833 255° West 480 552 40,000  Level Anchorage Center
11:37PM 57.7667 -175.2333 250° West 480 552 40,000  Level Anchorage Center
11:38PM 57.7333 -175.4667 255° West 480 552 40,000  Level Anchorage Center
11:39PM 57.7000 -175.7167 256° West 480 552 40,000  Level Anchorage Center
11:40PM 57.6667 -175.9500 255° West 480 552 40,000  Level Anchorage Center
11:41PM 57.6333 -176.1833 255° West 470 541 40,000  Level Anchorage Center
11:44PM 57.5333 -176.8000 252° West 480 552 40,000  Level Anchorage Center
11:49PM 57.3167 -178.0333 251° West 484 557 40,000  Level Anchorage Center
11:50PM 57.2817 -178.1970 251° West 480 552 40,000  Level FlightAware Transoceanic
11:51PM 57.2382 -178.4280 251° West 480 552 40,000  Level FlightAware Transoceanic
11:52PM 57.1943 -178.6584 251° West 480 552 40,000  Level FlightAware Transoceanic
11:53PM 57.1501 -178.8883 250° West 480 552 40,000  Level FlightAware Transoceanic
11:54PM 57.1053 -179.1176 250° West 480 552 40,000  Level FlightAware Transoceanic
11:55PM 57.0466 -179.4348 250° West 484 557 40,000  Level FlightAware Transoceanic
11:56PM 57.0001 -179.6664 250° West 484 557 40,000  Level FlightAware Transoceanic
11:57PM 56.9531 -179.8974 249° West 484 557 40,000  Level FlightAware Transoceanic
11:58PM 56.9058 179.8722 249° West 484 557 40,000  Level FlightAware Transoceanic
11:58PM 56.8833 179.7500 249° West 479 551 40,000  Level Anchorage Center
11:59PM 56.8579 179.6423 249° West 484 557 40,000  Level FlightAware Transoceanic
12:00AM 56.8097 179.4131 249° West 484 557 40,000  Level FlightAware Transoceanic
12:01AM 56.7611 179.1844 249° West 484 557 40,000  Level FlightAware Transoceanic
12:02AM 56.7120 178.9564 248° West 484 557 40,000  Level FlightAware Transoceanic
12:03AM 56.6626 178.7289 248° West 484 557 40,000  Level FlightAware Transoceanic
12:04AM 56.6127 178.5021 248° West 484 557 40,000  Level FlightAware Transoceanic
12:05AM 56.5929 178.4018 248° West 479 551 40,000  Level FlightAware Transoceanic
12:06AM 56.5431 178.1791 248° West 479 551 40,000  Level FlightAware Transoceanic
12:07AM 56.4929 177.9570 248° West 479 551 40,000  Level FlightAware Transoceanic
12:08AM 56.4423 177.7355 247° West 479 551 40,000  Level FlightAware Transoceanic
12:08AM 56.4000 177.6000 247° West 479 551 40,000  Level Anchorage Center
12:09AM 56.3913 177.5146 247° West 479 551 40,000  Level FlightAware Transoceanic
12:10AM 56.3399 177.2943 247° West 479 551 40,000  Level FlightAware Transoceanic
12:11AM 56.2881 177.0746 247° West 479 551 40,000  Level FlightAware Transoceanic
12:12AM 56.2360 176.8555 247° West 479 551 40,000  Level FlightAware Transoceanic
12:13AM 56.1834 176.6369 247° West 479 551 40,000  Level FlightAware Transoceanic
12:14AM 56.1305 176.4190 246° West 479 551 40,000  Level FlightAware Transoceanic
12:15AM 56.0446 176.1035 246° West 479 551 40,000  Level FlightAware Transoceanic
12:16AM 55.9924 175.8920 246° West 479 551 40,000  Level FlightAware Transoceanic
12:17AM 55.9398 175.6811 246° West 479 551 40,000  Level FlightAware Transoceanic
12:17AM 55.9333 175.6833 245° Southwest 470 541 40,000  Level Anchorage Center
12:18AM 55.8868 175.4707 246° West 479 551 40,000  Level FlightAware Transoceanic
12:18AM 55.8833 175.5000 244° Southwest 470 541 40,000  Level Anchorage Center
12:19AM 55.8335 175.2609 246° West 479 551 40,000  Level FlightAware Transoceanic
12:19AM 55.8333 175.2667 249° West 470 541 40,000  Level Anchorage Center
12:20AM 55.7799 175.0517 245° Southwest 479 551 40,000  Level FlightAware Transoceanic
12:20AM 55.7833 175.0833 244° Southwest 470 541 40,000  Level Anchorage Center
12:21AM 55.7259 174.8431 245° Southwest 479 551 40,000  Level FlightAware Transoceanic
12:21AM 55.7167 174.8333 245° Southwest 480 552 40,000  Level Anchorage Center
12:22AM 55.6715 174.6350 245° Southwest 479 551 40,000  Level FlightAware Transoceanic
12:22AM 55.6667 174.6500 244° Southwest 480 552 40,000  Level Anchorage Center
12:23AM 55.6167 174.4167 249° West 470 541 40,000  Level Anchorage Center
12:24AM 55.5500 174.2000 242° Southwest 470 541 40,000  Level Anchorage Center
12:25AM 55.5000 174.0167 244° Southwest 470 541 40,000  Level Anchorage Center
12:26AM 55.4333 173.7833 243° Southwest 480 552 40,000  Level Anchorage Center
12:27AM 55.3833 173.6000 244° Southwest 480 552 40,000  Level Anchorage Center
12:28AM 55.3167 173.3667 243° Southwest 470 541 40,000  Level Anchorage Center
12:29AM 55.2667 173.1833 244° Southwest 480 552 40,000  Level Anchorage Center
12:30AM 55.2000 172.9500 243° Southwest 480 552 40,000  Level Anchorage Center
12:31AM 55.1333 172.7333 242° Southwest 480 552 40,000  Level Anchorage Center
12:32AM 55.0833 172.5500 245° Southwest 470 541 40,000  Level Anchorage Center
12:33AM 55.0167 172.3333 242° Southwest 480 552 40,000  Level Anchorage Center
12:34AM 54.9667 172.1500 245° Southwest 480 552 40,000  Level Anchorage Center
12:35AM 54.9000 171.9167 244° Southwest 480 552 40,000  Level Anchorage Center
12:36AM 54.8333 171.7667 232° Southwest 460 529 40,000  Level Anchorage Center
12:37AM 54.7500 171.5500 236° Southwest 490 564 40,000  Level Anchorage Center
12:38AM 54.6833 171.4000 232° Southwest 480 552 40,000  Level Anchorage Center
12:39AM 54.6000 171.2000 234° Southwest 470 541 40,000  Level Anchorage Center
12:40AM 54.5167 170.9833 237° Southwest 490 564 40,000  Level Anchorage Center
12:41AM 54.4500 170.8333 233° Southwest 490 564 40,000  Level Anchorage Center
12:42AM 54.3667 170.6333 234° Southwest 470 541 40,000  Level Anchorage Center
12:43AM 54.3000 170.4833 233° Southwest 460 529 40,000  Level Anchorage Center
12:44AM 54.2000 170.2667 232° Southwest 490 564 40,000  Level Anchorage Center
12:45AM 54.1333 170.1167 233° Southwest 470 541 40,000  Level Anchorage Center
12:46AM 54.0500 169.9167 235° Southwest 480 552 40,000  Level Anchorage Center
12:47AM 53.9667 169.7333 232° Southwest 470 541 40,000  Level Anchorage Center
12:48AM 53.9000 169.5833 233° Southwest 470 541 40,000  Level Anchorage Center
12:49AM 53.8000 169.3833 230° Southwest 480 552 40,000  Level Anchorage Center
12:50AM 53.7333 169.2167 236° Southwest 510 587 40,000  Level Anchorage Center
12:51AM 53.6667 169.0500 236° Southwest 490 564 40,000  Level Anchorage Center
12:52AM 53.6167 168.8500 247° West 460 529 40,000  Level Anchorage Center
12:53AM 53.5667 168.6833 243° Southwest 460 529 40,000  Level Anchorage Center
12:56AM 53.3333 168.0333 240° Southwest 471 542 40,000  Level Anchorage Center
01:02AM 52.9499 166.9599 239° Southwest 471 542 40,000  Level FlightAware Transoceanic
01:03AM 52.8851 166.7829 239° Southwest 471 542 40,000  Level FlightAware Transoceanic
01:04AM 52.8200 166.6064 239° Southwest 471 542 40,000  Level FlightAware Transoceanic
01:05AM 52.7547 166.4304 238° Southwest 471 542 40,000  Level FlightAware Transoceanic
01:06AM 52.6890 166.2549 238° Southwest 471 542 40,000  Level FlightAware Transoceanic
01:06AM 52.6833 166.2333 238° Southwest 469 540 40,000  Level Anchorage Center
01:07AM 52.6232 166.0800 238° Southwest 471 542 40,000  Level FlightAware Transoceanic
01:08AM 52.5570 165.9056 238° Southwest 471 542 40,000  Level FlightAware Transoceanic
01:09AM 52.4907 165.7318 238° Southwest 471 542 40,000  Level FlightAware Transoceanic
01:10AM 52.4240 165.5584 238° Southwest 471 542 40,000  Level FlightAware Transoceanic
01:11AM 52.3571 165.3856 238° Southwest 471 542 40,000  Level FlightAware Transoceanic
01:12AM 52.2849 165.1950 237° Southwest 469 540 40,000  Level FlightAware Transoceanic
01:13AM 52.2177 165.0238 237° Southwest 469 540 40,000  Level FlightAware Transoceanic
01:14AM 52.1501 164.8531 237° Southwest 469 540 40,000  Level FlightAware Transoceanic
01:15AM 52.0824 164.6829 237° Southwest 469 540 40,000  Level FlightAware Transoceanic
01:15AM 52.0167 164.5333 237° Southwest 466 536 40,000  Level Anchorage Center
01:16AM 52.0144 164.5132 237° Southwest 469 540 40,000  Level FlightAware Transoceanic
01:17AM 51.9461 164.3441 237° Southwest 469 540 40,000  Level FlightAware Transoceanic
01:18AM 51.8776 164.1754 237° Southwest 469 540 40,000  Level FlightAware Transoceanic
01:19AM 51.8088 164.0073 236° Southwest 469 540 40,000  Level FlightAware Transoceanic
01:20AM 51.7399 163.8397 236° Southwest 469 540 40,000  Level FlightAware Transoceanic
01:20AM 51.6500 163.6500 236° Southwest 460 529 40,000  Level Anchorage Center
01:21AM 51.6727 163.6894 236° Southwest 466 536 40,000  Level FlightAware Transoceanic
01:22AM 51.6032 163.5222 236° Southwest 466 536 40,000  Level FlightAware Transoceanic
01:23AM 51.5335 163.3554 236° Southwest 466 536 40,000  Level FlightAware Transoceanic
01:24AM 51.4635 163.1892 236° Southwest 466 536 40,000  Level FlightAware Transoceanic
01:25AM 51.3933 163.0235 236° Southwest 466 536 40,000  Level FlightAware Transoceanic
01:25AM 51.3333 162.9000 236° Southwest 463 533 40,000  Level Anchorage Center
01:26AM 51.3228 162.8583 236° Southwest 466 536 40,000  Level FlightAware Transoceanic
01:27AM 51.2181 162.6260 236° Southwest 460 529 40,000  Level FlightAware Transoceanic
01:28AM 51.1452 162.4572 235° Southwest 460 529 40,000  Level FlightAware Transoceanic
01:29AM 51.0721 162.2890 235° Southwest 460 529 40,000  Level FlightAware Transoceanic
01:30AM 50.9988 162.1213 235° Southwest 460 529 40,000  Level FlightAware Transoceanic
01:31AM 50.9032 161.9076 235° Southwest 463 533 40,000  Level FlightAware Transoceanic
01:32AM 50.8307 161.7440 235° Southwest 463 533 40,000  Level FlightAware Transoceanic
01:33AM 50.7580 161.5809 235° Southwest 463 533 40,000  Level FlightAware Transoceanic
01:34AM 50.6851 161.4183 235° Southwest 463 533 40,000  Level FlightAware Transoceanic
01:34AM 50.6333 161.3167 235° Southwest 453 521 40,000  Level Anchorage Center
01:35AM 50.6119 161.2562 234° Southwest 463 533 40,000  Level FlightAware Transoceanic
01:36AM 50.5385 161.0946 234° Southwest 463 533 40,000  Level FlightAware Transoceanic
01:37AM 50.4649 160.9335 234° Southwest 463 533 40,000  Level FlightAware Transoceanic
01:38AM 50.3910 160.7729 234° Southwest 463 533 40,000  Level FlightAware Transoceanic
01:39AM 50.3170 160.6128 234° Southwest 463 533 40,000  Level FlightAware Transoceanic
01:40AM 50.2427 160.4532 234° Southwest 463 533 40,000  Level FlightAware Transoceanic
01:40AM 50.2000 160.3833 234° Southwest 453 521 40,000  Level Anchorage Center
01:41AM 50.1791 160.3239 234° Southwest 453 521 40,000  Level FlightAware Transoceanic
01:42AM 50.1026 160.1603 234° Southwest 453 521 40,000  Level FlightAware Transoceanic
01:43AM 50.0259 159.9972 234° Southwest 453 521 40,000  Level FlightAware Transoceanic
01:44AM 49.9489 159.8346 234° Southwest 453 521 40,000  Level FlightAware Transoceanic
01:44AM 49.9333 159.7833 232° Southwest 459 528 40,000  Level Anchorage Center
01:45AM 49.8717 159.6726 233° Southwest 453 521 40,000  Level FlightAware Transoceanic
01:46AM 49.7943 159.5110 233° Southwest 453 521 40,000  Level FlightAware Transoceanic
01:47AM 49.7167 159.3500 233° Southwest 453 521 40,000  Level FlightAware Transoceanic
01:48AM 49.6445 159.2026 233° Southwest 453 521 40,000  Level FlightAware Transoceanic
01:49AM 49.5721 159.0556 233° Southwest 453 521 40,000  Level FlightAware Transoceanic
01:50AM 49.4995 158.9090 233° Southwest 459 528 40,000  Level FlightAware Transoceanic
01:51AM 49.4267 158.7629 232° Southwest 459 528 40,000  Level FlightAware Transoceanic
01:52AM 49.3538 158.6172 232° Southwest 459 528 40,000  Level FlightAware Transoceanic
01:53AM 49.2806 158.4719 232° Southwest 459 528 40,000  Level FlightAware Transoceanic
01:54AM 49.2073 158.3271 232° Southwest 459 528 40,000  Level FlightAware Transoceanic
01:55AM 49.1338 158.1827 232° Southwest 459 528 40,000  Level FlightAware Transoceanic
01:56AM 49.0601 158.0387 232° Southwest 459 528 40,000  Level FlightAware Transoceanic
01:57AM 48.9863 157.8952 232° Southwest 459 528 40,000  Level FlightAware Transoceanic
01:58AM 48.9123 157.7520 232° Southwest 459 528 40,000  Level FlightAware Transoceanic
01:59AM 48.8381 157.6093 232° Southwest 459 528 40,000  Level FlightAware Transoceanic
02:00AM 48.7637 157.4671 232° Southwest 459 528 40,000  Level FlightAware Transoceanic
02:01AM 48.6891 157.3252 231° Southwest 459 528 40,000  Level FlightAware Transoceanic
02:02AM 48.6144 157.1838 231° Southwest 459 528 40,000  Level FlightAware Transoceanic
02:03AM 48.5395 157.0428 231° Southwest 459 528 40,000  Level FlightAware Transoceanic
02:04AM 48.4644 156.9022 231° Southwest 459 528 40,000  Level FlightAware Transoceanic
02:05AM 48.3891 156.7620 231° Southwest 459 528 40,000  Level FlightAware Transoceanic
02:06AM 48.3137 156.6222 231° Southwest 459 528 40,000  Level FlightAware Transoceanic
02:07AM 48.2381 156.4829 231° Southwest 459 528 40,000  Level FlightAware Transoceanic
02:08AM 48.1624 156.3439 231° Southwest 459 528 40,000  Level FlightAware Transoceanic
02:09AM 48.0865 156.2054 231° Southwest 459 528 40,000  Level FlightAware Transoceanic
02:10AM 48.0104 156.0673 230° Southwest 459 528 40,000  Level FlightAware Transoceanic
02:11AM 47.9341 155.9296 230° Southwest 459 528 40,000  Level FlightAware Transoceanic
02:12AM 47.8577 155.7923 230° Southwest 459 528 40,000  Level FlightAware Transoceanic
02:13AM 47.7811 155.6553 230° Southwest 459 528 40,000  Level FlightAware Transoceanic
02:14AM 47.7044 155.5188 230° Southwest 459 528 40,000  Level FlightAware Transoceanic
02:15AM 47.6275 155.3828 230° Southwest 459 528 40,000  Level FlightAware Transoceanic
02:16AM 47.5504 155.2471 230° Southwest 459 528 40,000  Level FlightAware Transoceanic
02:17AM 47.4732 155.1117 230° Southwest 459 528 40,000  Level FlightAware Transoceanic
02:18AM 47.3958 154.9768 230° Southwest 459 528 40,000  Level FlightAware Transoceanic
02:19AM 47.3183 154.8423 230° Southwest 459 528 40,000  Level FlightAware Transoceanic
02:20AM 47.2406 154.7082 229° Southwest 459 528 40,000  Level FlightAware Transoceanic
02:21AM 47.1627 154.5745 229° Southwest 459 528 40,000  Level FlightAware Transoceanic
02:22AM 47.0847 154.4412 229° Southwest 459 528 40,000  Level FlightAware Transoceanic
02:23AM 47.0066 154.3082 229° Southwest 459 528 40,000  Level FlightAware Transoceanic
02:24AM 46.9283 154.1757 229° Southwest 459 528 40,000  Level FlightAware Transoceanic
02:25AM 46.8498 154.0435 229° Southwest 459 528 40,000  Level FlightAware Transoceanic
02:26AM 46.7712 153.9117 229° Southwest 459 528 40,000  Level FlightAware Transoceanic
02:27AM 46.6924 153.7803 229° Southwest 459 528 40,000  Level FlightAware Transoceanic
02:28AM 46.6135 153.6494 229° Southwest 459 528 40,000  Level FlightAware Transoceanic
02:29AM 46.5344 153.5187 229° Southwest 459 528 40,000  Level FlightAware Transoceanic
02:30AM 46.4552 153.3885 228° Southwest 459 528 40,000  Level FlightAware Transoceanic
02:31AM 46.3758 153.2586 228° Southwest 459 528 40,000  Level FlightAware Transoceanic
02:32AM 46.2963 153.1291 228° Southwest 459 528 40,000  Level FlightAware Transoceanic
02:33AM 46.2126 152.9934 228° Southwest  Level FlightAware Approximate
02:34AM 46.2085 152.9869 228° Southwest  Level FlightAware Approximate
02:35AM 46.1241 152.8523 228° Southwest  Level FlightAware Approximate
02:36AM 46.0395 152.7182 228° Southwest  Level FlightAware Approximate
02:37AM 45.9548 152.5844 228° Southwest  Level FlightAware Approximate
02:38AM 45.8699 152.4511 228° Southwest  Level FlightAware Approximate
02:39AM 45.7849 152.3181 227° Southwest  Level FlightAware Approximate
02:40AM 45.6997 152.1856 227° Southwest  Level FlightAware Approximate
02:41AM 45.6143 152.0535 227° Southwest  Level FlightAware Approximate
02:42AM 45.5289 151.9217 227° Southwest  Level FlightAware Approximate
02:43AM 45.4432 151.7904 227° Southwest  Level FlightAware Approximate
02:44AM 45.3574 151.6595 227° Southwest  Level FlightAware Approximate
02:45AM 45.2715 151.5289 227° Southwest  Level FlightAware Approximate
02:46AM 45.1854 151.3988 227° Southwest  Level FlightAware Approximate
02:47AM 45.0992 151.2690 227° Southwest  Level FlightAware Approximate
02:48AM 45.0128 151.1397 227° Southwest  Level FlightAware Approximate
02:49AM 44.9262 151.0107 227° Southwest  Level FlightAware Approximate
02:50AM 44.8396 150.8821 226° Southwest  Level FlightAware Approximate
02:51AM 44.7528 150.7539 226° Southwest  Level FlightAware Approximate
02:52AM 44.6658 150.6261 226° Southwest  Level FlightAware Approximate
02:53AM 44.5787 150.4987 226° Southwest  Level FlightAware Approximate
02:54AM 44.4915 150.3717 226° Southwest  Level FlightAware Approximate
02:55AM 44.4041 150.2450 226° Southwest  Level FlightAware Approximate
02:56AM 44.3166 150.1187 226° Southwest  Level FlightAware Approximate
02:57AM 44.2289 149.9928 226° Southwest  Level FlightAware Approximate
02:58AM 44.1411 149.8673 226° Southwest  Level FlightAware Approximate
02:59AM 44.0532 149.7421 226° Southwest  Level FlightAware Approximate
03:00AM 43.9651 149.6173 226° Southwest  Level FlightAware Approximate
03:01AM 43.8769 149.4929 225° Southwest  Level FlightAware Approximate
03:02AM 43.7885 149.3689 225° Southwest  Level FlightAware Approximate
03:03AM 43.7001 149.2452 225° Southwest  Level FlightAware Approximate
03:04AM 43.6114 149.1219 225° Southwest  Level FlightAware Approximate
03:05AM 43.5227 148.9989 225° Southwest  Level FlightAware Approximate
03:05AM 43.4260 148.8660 225° Southwest 420 483 40,000  Level FlightAware
03:06AM 43.4338 148.8763 225° Southwest  Level FlightAware Approximate
03:06AM 43.3430 148.7520 225° Southwest 421 484 40,000  Level FlightAware
03:06AM 43.2870 148.6750 225° Southwest 420 483 40,000  Level FlightAware
03:07AM 43.2170 148.5800 225° Southwest 420 483 40,000  Level FlightAware
03:08AM 43.1760 148.5230 225° Southwest 420 483 40,000  Level FlightAware
03:09AM 43.0840 148.3990 225° Southwest 420 483 40,000  Level FlightAware
03:10AM 43.0010 148.2860 225° Southwest 425 489 40,000  Level FlightAware
03:10AM 42.9590 148.2300 224° Southwest 417 480 40,000  Level FlightAware
03:11AM 42.8840 148.1290 225° Southwest 415 478 40,000  Level FlightAware
03:12AM 42.7860 147.9980 224° Southwest 416 479 40,000  Level FlightAware
03:13AM 42.7440 147.9420 224° Southwest 415 478 40,000  Level FlightAware
03:14AM 42.6880 147.8670 225° Southwest 412 474 40,000  Level FlightAware
03:14AM 42.6490 147.8160 224° Southwest 410 472 40,000  Level FlightAware
03:15AM 42.6050 147.7580 224° Southwest 411 473 40,000  Level FlightAware
03:15AM 42.5500 147.6840 225° Southwest 411 473 40,000  Level FlightAware
03:16AM 42.4940 147.6110 224° Southwest 414 476 40,000  Level FlightAware
03:17AM 42.4390 147.5380 224° Southwest 414 476 40,000  Level FlightAware
03:17AM 42.3830 147.4650 224° Southwest 413 475 40,000  Level FlightAware
03:18AM 42.3250 147.3890 224° Southwest 412 474 40,000  Level FlightAware
03:19AM 42.2650 147.3110 224° Southwest 412 474 40,000  Level FlightAware
03:19AM 42.2100 147.2390 224° Southwest 412 474 40,000  Level FlightAware
03:20AM 42.1690 147.1850 224° Southwest 413 475 40,000  Level FlightAware
03:21AM 42.0920 147.0850 224° Southwest 412 474 40,000  Level FlightAware
03:22AM 42.0150 146.9860 224° Southwest 419 482 40,000  Level FlightAware
03:22AM 41.9800 146.9410 224° Southwest 420 483 40,000  Level FlightAware
03:23AM 41.9100 146.8510 224° Southwest 420 483 40,000  Level FlightAware
03:23AM 41.8610 146.7880 224° Southwest 421 484 40,000  Level FlightAware
03:24AM 41.8180 146.7340 223° Southwest 421 484 40,000  Level FlightAware
03:25AM 41.7690 146.6700 224° Southwest 419 482 40,000  Level FlightAware
03:25AM 41.7270 146.6170 223° Southwest 420 483 40,000  Level FlightAware
03:26AM 41.6780 146.5540 224° Southwest 421 484 40,000  Level FlightAware
03:26AM 41.6350 146.5000 223° Southwest 420 483 40,000  Level FlightAware
03:27AM 41.5860 146.4380 223° Southwest 419 482 40,000  Level FlightAware
03:27AM 41.5300 146.3660 224° Southwest 420 483 40,000  Level FlightAware
03:28AM 41.4530 146.2690 223° Southwest 420 483 40,000  Level FlightAware
03:29AM 41.3960 146.1970 223° Southwest 420 483 40,000  Level FlightAware
03:30AM 41.3390 146.1260 223° Southwest 420 483 40,000  Level FlightAware
03:30AM 41.2900 146.0640 224° Southwest 422 486 40,000  Level FlightAware
03:31AM 41.2260 145.9850 223° Southwest 422 486 40,000  Level FlightAware
03:32AM 41.1400 145.8780 223° Southwest 423 487 40,000  Level FlightAware
03:33AM 41.0910 145.8170 223° Southwest 420 483 40,000  Level FlightAware
03:33AM 41.0480 145.7640 223° Southwest 420 483 40,000  Level FlightAware
03:34AM 40.9920 145.6940 223° Southwest 420 483 40,000  Level FlightAware
03:34AM 40.9350 145.6240 223° Southwest 418 481 40,000  Level FlightAware
03:36AM 40.8350 145.5020 223° Southwest 418 481 40,000  Level FlightAware
03:36AM 40.8100 145.4710 223° Southwest 418 481 40,000  Level FlightAware
03:36AM 40.7580 145.4060 223° Southwest 421 484 40,000  Level FlightAware
03:37AM 40.6860 145.3190 223° Southwest 421 484 40,000  Level FlightAware
03:38AM 40.6170 145.2350 223° Southwest 421 484 40,000  Level FlightAware
03:39AM 40.5720 145.1810 222° Southwest 421 484 40,000  Level FlightAware
03:40AM 40.4800 145.0690 223° Southwest 416 479 40,000  Level FlightAware
03:40AM 40.4280 145.0070 222° Southwest 420 483 40,000  Level FlightAware
03:41AM 40.3570 144.9210 223° Southwest 416 479 40,000  Level FlightAware
03:41AM 40.3330 144.8920 223° Southwest 415 478 40,000  Level FlightAware
03:42AM 40.2720 144.8200 222° Southwest 415 478 40,000  Level FlightAware
03:43AM 40.2280 144.7680 222° Southwest 415 478 40,000  Level FlightAware
03:43AM 40.1850 144.7170 222° Southwest 415 478 40,000  Level FlightAware
03:44AM 40.1250 144.6470 222° Southwest 415 478 40,000  Level FlightAware
03:45AM 40.0800 144.5940 222° Southwest 415 478 40,000  Level FlightAware
03:45AM 40.0510 144.5600 222° Southwest 415 478 40,000  Level FlightAware
03:46AM 40.0080 144.5090 222° Southwest 415 478 40,000  Level FlightAware
03:47AM 39.9200 144.4060 222° Southwest 415 478 40,000  Level FlightAware
03:48AM 39.8900 144.3700 223° Southwest 415 478 40,000  Level FlightAware
03:48AM 39.8460 144.3190 222° Southwest 415 478 40,000  Level FlightAware
03:49AM 39.7870 144.2500 222° Southwest 415 478 40,000  Level FlightAware
03:50AM 39.5930 144.0160 223° Southwest 429 494 40,000  Level FlightAware
03:51AM 39.5280 143.9410 222° Southwest 429 494 40,000  Level FlightAware
03:51AM 39.4750 143.8800 222° Southwest 429 494 40,000  Level FlightAware
03:52AM 39.4170 143.8130 222° Southwest 429 494 40,000  Level FlightAware
03:52AM 39.3720 143.7600 222° Southwest 431 496 40,000  Level FlightAware
03:54AM 39.2750 143.6490 222° Southwest 434 499 40,000  Level FlightAware
03:54AM 39.2130 143.6020 210° Southwest 445 512 40,000  Level FlightAware
03:55AM 39.1430 143.5720 198° South 458 527 40,000  Level FlightAware
03:55AM 39.0720 143.5430 198° South 457 526 40,000  Level FlightAware
03:56AM 38.9610 143.4990 197° South 455 524 40,000  Level FlightAware
03:57AM 38.9110 143.4790 197° South 456 525 40,000  Level FlightAware
03:57AM 38.8410 143.4500 198° South 445 512 40,000  Level FlightAware
03:58AM 38.7820 143.4220 200° South 448 516 40,000  Level FlightAware
03:58AM 38.7150 143.3900 200° South 446 513 40,000  Level FlightAware
03:59AM 38.5880 143.3290 201° Southwest 445 512 40,000  Level FlightAware
04:00AM 38.4890 143.2820 200° South 444 511 40,000  Level FlightAware
04:01AM 38.4230 143.2490 201° Southwest 431 496 40,000  Level FlightAware
04:01AM 38.3640 143.2220 200° South 431 496 40,000  Level FlightAware
04:02AM 38.2830 143.1820 201° Southwest 443 510 40,000  Level FlightAware
04:03AM 38.2060 143.1460 200° South 443 510 40,000  Level FlightAware
04:03AM 38.1380 143.1140 200° South 433 498 40,000  Level FlightAware
04:04AM 38.0620 143.0770 201° Southwest 443 510 40,000  Level FlightAware
04:05AM 37.9950 143.0460 200° South 443 510 40,000  Level FlightAware
04:05AM 37.9110 143.0060 201° Southwest 433 498 40,000  Level FlightAware
04:06AM 37.8230 142.9650 200° South 433 498 40,000  Level FlightAware
04:07AM 37.7460 142.9290 200° South 432 497 40,000  Level FlightAware
04:07AM 37.6890 142.9020 201° Southwest 432 497 40,000  Level FlightAware
04:08AM 37.5740 142.8480 200° South 443 510 40,000  Level FlightAware
04:09AM 37.4400 142.7860 200° South 444 511 40,000  Level FlightAware
04:10AM 37.3340 142.7370 200° South 442 509 40,000  Level FlightAware
04:11AM 37.1990 142.6740 200° South 445 512 40,000  Level FlightAware
04:12AM 37.1400 142.6470 200° South 446 513 40,000  Level FlightAware
04:13AM 37.0730 142.6160 200° South 446 513 40,000  Level FlightAware
04:13AM 37.0150 142.5890 200° South 447 514 40,000  Level FlightAware
04:14AM 36.9460 142.5580 200° South 446 513 40,000  Level FlightAware
04:14AM 36.8490 142.5140 200° South 444 511 40,000  Level FlightAware
04:15AM 36.7730 142.4780 201° Southwest 445 512 40,000 -120 Level FlightAware
04:16AM 36.6950 142.4430 200° South 443 510 39,900 -240 Descending FlightAware
04:16AM 36.6470 142.4210 200° South 430 495 39,800 -780 Descending FlightAware
04:17AM 36.5900 142.3950 200° South 427 491 39,200 -1,380 Descending FlightAware
04:17AM 36.5140 142.3610 200° South 429 494 38,200 -1,380 Descending FlightAware
04:18AM 36.4570 142.3350 200° South 428 493 37,600 -1,200 Descending FlightAware
04:18AM 36.4010 142.3100 200° South 426 490 37,000 -1,200 Descending FlightAware
04:19AM 36.3360 142.2810 200° South 430 495 36,300 -1,380 Descending FlightAware
04:20AM 36.2680 142.2500 200° South 425 489 35,400 -1,860 Descending FlightAware
04:20AM 36.1910 142.2150 200° South 442 509 34,000 -2,100 Descending FlightAware
04:21AM 36.1090 142.1680 205° Southwest 432 497 32,500 -1,500 Descending FlightAware
04:22AM 36.0590 142.1110 223° Southwest 417 480 32,000 -1,320 Descending FlightAware
04:22AM 36.0180 142.0590 226° Southwest 422 486 31,100 -1,860 Descending FlightAware
04:23AM 35.9560 141.9810 226° Southwest 423 487 29,700 -1,980 Descending FlightAware
04:24AM 35.8730 141.8750 226° Southwest 434 499 27,700 -1,860 Descending FlightAware
04:24AM 35.8410 141.8330 227° Southwest 421 484 27,100 -3,300 Descending FlightAware
04:25AM 35.8200 141.7290 256° West 403 464 23,900 -3,960 Descending FlightAware
04:26AM 35.8240 141.6310 273° West 387 445 21,200 -3,480 Descending FlightAware
04:26AM 35.8260 141.5390 272° West 368 423 18,700 -3,240 Descending FlightAware
04:27AM 35.8290 141.4730 273° West 371 427 17,100 -3,000 Descending FlightAware
04:28AM 35.8330 141.3740 273° West 363 418 14,900 -3,000 Descending FlightAware
04:28AM 35.8350 141.3120 272° West 365 420 13,400 -2,820 Descending FlightAware
04:29AM 35.8360 141.2490 271° West 367 422 12,100 -1,980 Descending FlightAware
04:29AM 35.8400 141.1700 274° West 346 398 11,100 -960 Descending FlightAware
04:30AM 35.8430 141.0680 272° West 297 342 10,600 -660 Descending FlightAware
04:31AM 35.8440 141.0180 271° West 278 320 10,200 -1,560 Descending FlightAware
04:31AM 35.8460 140.9580 272° West 257 296 8,800 -1,920 Descending FlightAware
04:32AM 35.8480 140.9090 273° West 257 296 7,800 -1,500 Descending FlightAware
04:32AM 35.8490 140.8720 272° West 254 292 7,300 -1,140 Descending FlightAware
04:33AM 35.8600 140.8160 284° West 243 280 6,600 -1,020 Descending FlightAware
04:34AM 35.8790 140.7590 292° West 240 276 5,900 -540 Descending FlightAware
04:34AM 35.8950 140.7130 293° West 246 283 5,900  Level FlightAware
04:35AM 35.9070 140.6800 294° West 246 283 5,900 -420 Level FlightAware
04:35AM 35.9220 140.6360 293° West 245 282 5,500 -1,020 Descending FlightAware
04:36AM 35.9300 140.6040 287° West 249 287 4,900 -1,440 Descending FlightAware
04:36AM 35.9330 140.5540 274° West 255 293 4,100 -840 Descending FlightAware
04:37AM 35.9370 140.4970 275° West 241 277 3,900 -180 Descending FlightAware
04:38AM 35.9390 140.4560 273° West 241 277 3,900 -240 Level FlightAware
04:38AM 35.9410 140.4160 274° West 223 257 3,700 -1,020 Descending FlightAware
04:39AM 35.9450 140.3630 275° West 195 224 2,700 -1,200 Descending FlightAware
04:39AM 35.9450 140.3500 270° West 194 223 2,500 -960 Descending FlightAware
04:40AM 35.9150 140.3150 223° Southwest 175 201 1,700 -540 Descending FlightAware
04:41AM 35.8860 140.3200 172° South 165 190 1,700 -360 Level FlightAware
04:41AM 35.8630 140.3360 151° Southeast 152 175 1,300 -720 Descending FlightAware
04:42AM 35.8440 140.3500 149° Southeast 139 160 900 -780 Descending FlightAware
04:42AM 35.8250 140.3640 149° Southeast 138 159 500 -720 Descending FlightAware
04:43AM 35.8050 140.3780 150° Southeast 143 165 100 -420 Descending FlightAware
04:43AM 35.7920 140.3880 148° Southeast 143 165 100  Level FlightAware